Time;durP1;ratioP1;P1;durP2;ratioP2;P2;SDS_P1;SDS_P2;PMS_P1;PMS_P2;Temp;Humidity;BMP_temperature;BMP_pressure;BME280_temperature;BME280_humidity;BME280_pressure;Samples;Min_cycle;Max_cycle;Signal;HPM_P1;HPM_P2
2023/10/22 00:02:17;;;;;;;1.30;0.40;;;;;;;15.72;50.74;96111.75;4903669;28;20264;-80
2023/10/22 00:04:43;;;;;;;2.25;0.40;;;;;;;15.70;51.12;96098.94;4926642;28;20197;-80
2023/10/22 00:07:08;;;;;;;2.35;0.90;;;;;;;15.79;51.22;96108.72;4910205;28;20121;-80
2023/10/22 00:09:33;;;;;;;1.45;0.60;;;;;;;15.73;52.08;96106.22;4912886;28;20272;-80
2023/10/22 00:11:59;;;;;;;2.35;0.50;;;;;;;15.73;51.48;96102.81;4907630;28;20195;-80
2023/10/22 00:14:24;;;;;;;1.60;0.52;;;;;;;15.69;51.05;96105.25;4927410;28;20195;-80
2023/10/22 00:16:50;;;;;;;1.55;0.70;;;;;;;15.71;51.18;96102.34;4894883;28;20169;-80
2023/10/22 00:19:15;;;;;;;1.45;0.73;;;;;;;15.80;50.58;96105.00;4894840;28;20226;-80
2023/10/22 00:21:41;;;;;;;3.10;0.47;;;;;;;15.78;51.02;96101.91;4927284;28;20653;-80
2023/10/22 00:24:06;;;;;;;3.30;0.50;;;;;;;15.70;51.72;96101.56;4910203;28;20739;-80
2023/10/22 00:26:39;;;;;;;1.55;0.57;;;;;;;15.61;51.84;96111.25;4888810;28;20205;-80
2023/10/22 00:29:05;;;;;;;2.25;0.40;;;;;;;15.61;52.34;96115.72;4924209;28;20052;-80
2023/10/22 00:31:31;;;;;;;2.35;0.60;;;;;;;15.48;51.90;96104.25;4906464;28;20274;-80
2023/10/22 00:33:56;;;;;;;1.95;0.43;;;;;;;15.58;51.32;96106.63;4907369;28;20156;-80
2023/10/22 00:36:24;;;;;;;3.38;0.40;;;;;;;15.59;51.53;96104.75;4910630;28;20291;-80
2023/10/22 00:38:50;;;;;;;3.65;0.40;;;;;;;15.57;51.86;96106.91;4910952;28;20619;-80
2023/10/22 00:41:15;;;;;;;3.13;0.50;;;;;;;15.44;51.96;96114.59;4916507;28;21566;-80
2023/10/22 00:43:41;;;;;;;2.13;0.93;;;;;;;15.46;52.43;96124.78;4907794;28;20193;-80
2023/10/22 00:46:06;;;;;;;2.45;0.57;;;;;;;15.46;52.21;96124.78;4888063;28;20200;-80
2023/10/22 00:48:32;;;;;;;2.65;0.95;;;;;;;15.40;52.14;96113.63;4890904;28;20642;-80
2023/10/22 00:51:00;;;;;;;2.08;0.40;;;;;;;15.38;52.32;96121.00;4907689;28;20278;-81
2023/10/22 00:53:29;;;;;;;2.20;0.52;;;;;;;15.21;52.36;96126.94;4890945;28;20738;-81
2023/10/22 00:55:55;;;;;;;4.22;0.50;;;;;;;15.34;53.15;96125.31;4907838;28;20658;-80
2023/10/22 00:58:20;;;;;;;2.45;0.75;;;;;;;15.19;52.87;96129.09;4910162;28;20301;-80
2023/10/22 01:00:46;;;;;;;2.97;0.65;;;;;;;15.24;52.57;96115.84;4892755;28;20268;-80
2023/10/22 01:03:12;;;;;;;2.15;1.25;;;;;;;15.40;51.90;96128.59;4890668;28;20188;-80
2023/10/22 01:05:37;;;;;;;1.35;0.50;;;;;;;15.32;52.16;96132.72;4895897;28;20356;-79
2023/10/22 01:08:06;;;;;;;1.23;0.40;;;;;;;15.41;52.74;96123.03;4906097;28;20391;-80
2023/10/22 01:10:32;;;;;;;1.48;0.45;;;;;;;15.25;52.84;96124.50;4875479;28;20699;-79
2023/10/22 01:12:58;;;;;;;3.20;1.02;;;;;;;15.32;52.71;96130.09;4891227;28;20677;-79
2023/10/22 01:15:24;;;;;;;2.47;0.50;;;;;;;15.36;51.96;96121.31;4895225;28;20211;-79
2023/10/22 01:17:49;;;;;;;4.25;0.82;;;;;;;15.23;52.83;96124.78;4902563;28;20238;-80
2023/10/22 01:20:15;;;;;;;1.30;0.60;;;;;;;15.34;51.92;96126.09;4917342;28;20263;-80
2023/10/22 01:22:40;;;;;;;3.22;0.45;;;;;;;15.28;53.13;96126.50;4920893;28;20329;-80
2023/10/22 01:25:06;;;;;;;2.20;0.50;;;;;;;15.34;52.59;96133.19;4905241;28;20660;-80
2023/10/22 01:27:35;;;;;;;3.70;0.50;;;;;;;15.43;52.48;96128.75;4908924;28;20690;-80
2023/10/22 01:30:01;;;;;;;0.88;0.30;;;;;;;15.49;52.67;96132.03;4910140;28;20183;-80
2023/10/22 01:32:30;;;;;;;4.18;0.82;;;;;;;15.28;52.99;96135.16;4890424;28;20233;-80
2023/10/22 01:34:57;;;;;;;1.92;0.50;;;;;;;15.28;53.47;96142.25;4906849;28;20195;-80
2023/10/22 01:37:23;;;;;;;2.05;0.50;;;;;;;15.30;52.77;96140.91;4917681;28;20660;-80
2023/10/22 01:39:49;;;;;;;3.78;1.30;;;;;;;15.38;53.08;96142.00;4906276;28;20591;-80
2023/10/22 01:42:14;;;;;;;5.15;0.70;;;;;;;15.40;52.72;96149.56;4901371;28;20303;-80
2023/10/22 01:44:40;;;;;;;1.92;0.57;;;;;;;15.26;53.40;96139.16;4909928;28;20054;-80
2023/10/22 01:47:05;;;;;;;3.22;1.02;;;;;;;15.31;52.58;96147.66;4908383;28;20108;-80
2023/10/22 01:49:31;;;;;;;0.95;0.57;;;;;;;15.25;52.35;96145.47;4887441;28;20717;-80
2023/10/22 01:51:56;;;;;;;4.15;0.60;;;;;;;15.05;53.41;96150.13;4908107;28;20666;-79
2023/10/22 01:54:21;;;;;;;2.05;0.60;;;;;;;15.22;53.14;96143.47;4914557;28;20188;-80
2023/10/22 01:56:47;;;;;;;3.22;0.98;;;;;;;15.16;53.76;96142.78;4876144;28;20251;-79
2023/10/22 01:59:12;;;;;;;3.65;0.60;;;;;;;15.19;53.41;96142.19;4924253;28;20604;-79
2023/10/22 02:01:37;;;;;;;1.80;0.57;;;;;;;15.17;53.10;96139.88;4893819;28;20177;-79
2023/10/22 02:04:05;;;;;;;3.20;1.05;;;;;;;14.93;54.19;96158.53;4892161;28;20489;-79
2023/10/22 02:06:30;;;;;;;2.72;0.95;;;;;;;15.08;53.83;96157.41;4893165;28;20206;-79
2023/10/22 02:08:55;;;;;;;1.73;0.50;;;;;;;14.95;54.02;96153.75;4912834;28;20228;-79
2023/10/22 02:11:21;;;;;;;1.08;0.50;;;;;;;14.83;54.71;96153.50;4906350;28;20221;-79
2023/10/22 02:13:47;;;;;;;2.63;0.82;;;;;;;14.54;55.14;96151.25;4894034;28;20618;-79
2023/10/22 02:16:12;;;;;;;1.17;0.40;;;;;;;14.76;54.44;96148.69;4920325;28;20250;-80
2023/10/22 02:18:38;;;;;;;3.42;0.73;;;;;;;14.71;54.55;96155.88;4883396;28;20191;-80
2023/10/22 02:21:03;;;;;;;2.95;0.50;;;;;;;14.54;55.16;96153.84;4881947;28;20216;-79
2023/10/22 02:23:28;;;;;;;2.72;0.70;;;;;;;14.53;54.84;96155.72;4909057;28;20149;-80
2023/10/22 02:25:54;;;;;;;2.72;0.85;;;;;;;14.74;55.02;96157.91;4913201;28;20521;-80
2023/10/22 02:28:20;;;;;;;3.10;0.98;;;;;;;14.71;55.01;96151.41;4910934;28;20273;-79
2023/10/22 02:30:48;;;;;;;1.88;0.50;;;;;;;14.76;54.66;96147.91;4894191;28;20719;-79
2023/10/22 02:33:14;;;;;;;2.42;0.57;;;;;;;14.79;54.58;96153.34;4913204;28;20697;-80
2023/10/22 02:35:44;;;;;;;2.70;0.70;;;;;;;14.69;55.38;96153.56;4917533;28;20204;-79
2023/10/22 02:38:15;;;;;;;4.00;1.60;;;;;;;14.59;55.17;96153.78;4911866;28;20168;-81
2023/10/22 02:40:42;;;;;;;4.03;0.60;;;;;;;14.74;55.27;96158.69;4892920;28;20300;-79
2023/10/22 02:43:08;;;;;;;2.63;0.50;;;;;;;14.76;54.50;96159.16;4917786;28;20188;-80
2023/10/22 02:45:33;;;;;;;3.95;1.70;;;;;;;14.62;55.00;96147.94;4894056;28;20216;-79
2023/10/22 02:47:59;;;;;;;2.90;1.05;;;;;;;14.65;55.54;96157.06;4911212;28;20057;-80
2023/10/22 02:50:26;;;;;;;2.22;0.50;;;;;;;14.71;55.50;96156.66;4920495;28;20496;-79
2023/10/22 02:52:52;;;;;;;3.58;0.98;;;;;;;14.52;55.92;96158.63;4893276;28;20187;-80
2023/10/22 02:55:17;;;;;;;3.13;0.70;;;;;;;14.74;54.99;96160.53;4911493;28;20289;-80
2023/10/22 02:57:43;;;;;;;2.25;0.60;;;;;;;14.69;55.78;96161.41;4921354;28;20809;-79
2023/10/22 03:00:10;;;;;;;2.05;0.65;;;;;;;14.39;56.46;96162.78;4893381;28;20216;-79
2023/10/22 03:02:42;;;;;;;2.45;0.55;;;;;;;14.75;55.92;96160.25;4899159;28;20241;-79
2023/10/22 03:05:07;;;;;;;3.15;0.50;;;;;;;14.61;56.18;96162.88;4928385;28;20213;-79
2023/10/22 03:07:33;;;;;;;3.42;0.65;;;;;;;14.72;55.61;96160.84;4912022;28;20203;-80
2023/10/22 03:09:59;;;;;;;5.28;0.70;;;;;;;14.84;55.86;96167.38;4912567;28;20238;-80
2023/10/22 03:12:24;;;;;;;1.77;0.65;;;;;;;14.75;55.52;96168.09;4893006;28;20271;-80
2023/10/22 03:14:51;;;;;;;3.92;0.70;;;;;;;14.76;55.42;96171.50;4897834;28;20691;-79
2023/10/22 03:17:17;;;;;;;4.07;1.15;;;;;;;14.83;55.29;96163.22;4900013;28;20101;-79
2023/10/22 03:19:43;;;;;;;2.33;0.50;;;;;;;14.77;55.60;96171.19;4898630;28;20288;-80
2023/10/22 03:22:08;;;;;;;3.25;0.80;;;;;;;14.65;55.95;96172.78;4912986;28;20155;-79
2023/10/22 03:24:34;;;;;;;2.40;0.63;;;;;;;14.57;56.28;96176.84;4911230;28;20286;-79
2023/10/22 03:27:00;;;;;;;3.90;0.63;;;;;;;14.59;56.17;96180.75;4927878;28;20223;-80
2023/10/22 03:29:26;;;;;;;1.67;0.70;;;;;;;14.72;55.87;96184.41;4894305;28;20470;-80
2023/10/22 03:31:52;;;;;;;2.67;0.60;;;;;;;14.41;56.96;96184.22;4890746;28;20161;-79
2023/10/22 03:34:17;;;;;;;2.25;0.52;;;;;;;14.66;56.40;96196.06;4887696;28;20740;-79
2023/10/22 03:36:44;;;;;;;4.03;0.60;;;;;;;14.67;55.94;96176.66;4912182;28;20282;-80
2023/10/22 03:39:10;;;;;;;1.67;0.73;;;;;;;14.59;56.27;96195.69;4895275;28;20189;-79
2023/10/22 03:41:35;;;;;;;1.77;0.47;;;;;;;14.65;57.12;96183.25;4911203;28;20234;-79
2023/10/22 03:44:01;;;;;;;2.75;0.60;;;;;;;14.46;56.23;96191.22;4916257;28;20183;-79
2023/10/22 03:46:26;;;;;;;2.63;0.63;;;;;;;14.61;56.11;96201.41;4919266;28;20677;-78
2023/10/22 03:48:51;;;;;;;3.25;0.60;;;;;;;14.58;56.35;96194.09;4919942;28;20197;-79
2023/10/22 03:51:17;;;;;;;2.08;0.65;;;;;;;14.56;56.42;96191.00;4918057;28;20230;-81
2023/10/22 03:53:42;;;;;;;3.70;0.60;;;;;;;14.41;57.05;96198.13;4915185;28;20694;-81
2023/10/22 03:56:07;;;;;;;2.75;0.40;;;;;;;14.80;56.10;96201.28;4908471;28;20676;-79
2023/10/22 03:58:33;;;;;;;3.30;0.80;;;;;;;14.75;56.19;96204.78;4911067;28;20091;-79
2023/10/22 04:00:58;;;;;;;3.42;0.80;;;;;;;14.82;55.60;96208.84;4915187;28;20300;-80
2023/10/22 04:03:24;;;;;;;1.60;0.50;;;;;;;14.77;56.07;96215.75;4905996;28;20079;-79
2023/10/22 04:05:55;;;;;;;2.20;0.60;;;;;;;14.70;56.48;96209.34;4925828;28;20304;-79
2023/10/22 04:08:21;;;;;;;2.90;1.20;;;;;;;14.47;56.57;96224.97;4910002;28;20273;-79
2023/10/22 04:10:47;;;;;;;3.88;0.80;;;;;;;14.67;56.12;96223.03;4911920;28;20637;-79
2023/10/22 04:13:12;;;;;;;3.03;0.80;;;;;;;14.71;56.65;96231.88;4892448;28;20188;-79
2023/10/22 04:15:38;;;;;;;5.50;1.35;;;;;;;14.74;56.25;96239.16;4926396;28;20165;-80
2023/10/22 04:18:04;;;;;;;6.93;0.70;;;;;;;14.69;56.64;96245.25;4908315;28;20162;-79
2023/10/22 04:20:33;;;;;;;2.20;1.08;;;;;;;14.84;56.69;96246.78;4898993;28;20301;-79
2023/10/22 04:22:59;;;;;;;4.30;0.93;;;;;;;14.29;57.86;96231.88;4897174;28;20220;-80
2023/10/22 04:25:25;;;;;;;3.88;0.55;;;;;;;14.56;57.04;96243.41;4897760;28;20523;-80
2023/10/22 04:27:50;;;;;;;2.80;0.65;;;;;;;14.76;56.54;96250.09;4919337;28;20362;-79
2023/10/22 04:30:15;;;;;;;3.65;0.90;;;;;;;14.74;56.51;96257.50;4891534;28;20218;-80
2023/10/22 04:32:41;;;;;;;3.80;1.00;;;;;;;14.69;56.88;96255.75;4911385;28;20192;-80
2023/10/22 04:35:06;;;;;;;4.43;0.88;;;;;;;14.72;56.56;96256.97;4893912;28;20267;-80
2023/10/22 04:37:32;;;;;;;2.60;0.55;;;;;;;14.71;56.87;96261.47;4891690;28;20219;-80
2023/10/22 04:39:57;;;;;;;4.55;0.60;;;;;;;14.80;57.22;96272.03;4907225;28;20291;-79
2023/10/22 04:42:23;;;;;;;4.35;1.02;;;;;;;14.76;56.69;96276.31;4891510;28;20211;-79
2023/10/22 04:44:49;;;;;;;3.70;0.57;;;;;;;14.82;56.18;96274.34;4914190;28;20555;-80
2023/10/22 04:47:14;;;;;;;3.80;0.88;;;;;;;14.84;56.56;96277.44;4926612;28;20212;-79
2023/10/22 04:49:39;;;;;;;5.18;0.70;;;;;;;14.89;56.97;96277.34;4896594;28;20306;-80
2023/10/22 04:52:09;;;;;;;5.20;0.70;;;;;;;14.89;56.65;96279.97;4890858;28;20227;-79
2023/10/22 04:54:34;;;;;;;4.68;0.80;;;;;;;14.89;56.56;96287.81;4900112;28;20642;-80
2023/10/22 04:57:02;;;;;;;2.72;0.70;;;;;;;14.75;57.10;96285.22;4906897;28;20200;-79
2023/10/22 04:59:28;;;;;;;2.85;0.70;;;;;;;14.75;56.84;96280.78;4913146;28;20196;-80
2023/10/22 05:01:53;;;;;;;4.18;0.70;;;;;;;14.88;56.37;96286.28;4886830;28;20555;-82
2023/10/22 05:04:19;;;;;;;5.07;1.52;;;;;;;14.71;57.17;96287.66;4890705;28;20671;-80
2023/10/22 05:06:44;;;;;;;4.22;0.75;;;;;;;14.88;56.27;96281.06;4874544;28;20309;-80
2023/10/22 05:09:10;;;;;;;1.77;0.40;;;;;;;14.89;56.17;96290.44;4908629;28;20207;-80
2023/10/22 05:11:35;;;;;;;3.20;0.88;;;;;;;14.81;56.62;96281.44;4890993;28;20286;-80
2023/10/22 05:14:01;;;;;;;5.63;0.75;;;;;;;14.75;57.18;96286.03;4883111;28;20648;-80
2023/10/22 05:16:27;;;;;;;5.00;0.80;;;;;;;14.83;56.92;96283.78;4909256;28;20196;-82
2023/10/22 05:18:53;;;;;;;4.80;0.80;;;;;;;14.73;56.68;96284.75;4893047;28;20194;-80
2023/10/22 05:21:18;;;;;;;2.47;0.63;;;;;;;14.72;56.89;96293.66;4893956;28;20334;-80
2023/10/22 05:23:44;;;;;;;1.73;0.50;;;;;;;14.39;57.98;96281.44;4904697;28;20797;-79
2023/10/22 05:26:14;;;;;;;3.75;0.47;;;;;;;14.63;57.04;96280.47;4907541;28;20222;-80
2023/10/22 05:28:40;;;;;;;3.30;0.40;;;;;;;14.68;56.87;96297.94;4924646;28;20332;-80
2023/10/22 05:31:13;;;;;;;3.95;0.70;;;;;;;14.90;56.62;96299.88;4906471;28;20675;-80
2023/10/22 05:33:39;;;;;;;4.32;0.70;;;;;;;14.58;56.55;96293.66;4922327;28;20283;-80
2023/10/22 05:36:04;;;;;;;2.65;0.65;;;;;;;14.75;56.64;96293.09;4891358;28;20726;-80
2023/10/22 05:38:30;;;;;;;4.50;1.17;;;;;;;14.54;56.97;96300.53;4907124;28;20688;-79
2023/10/22 05:40:55;;;;;;;3.10;0.60;;;;;;;14.21;57.84;96311.84;4909277;28;20191;-80
2023/10/22 05:43:20;;;;;;;5.47;0.98;;;;;;;14.29;58.03;96305.19;4907442;28;20265;-80
2023/10/22 05:45:55;;;;;;;4.70;1.00;;;;;;;14.69;57.33;96316.00;4907450;28;20783;-80
2023/10/22 05:48:20;;;;;;;2.33;0.70;;;;;;;14.49;57.37;96316.34;4911283;28;20204;-80
2023/10/22 05:50:46;;;;;;;1.60;0.50;;;;;;;14.65;57.03;96320.28;4900492;28;20091;-80
2023/10/22 05:53:11;;;;;;;5.63;1.23;;;;;;;14.43;57.78;96319.06;4926897;28;20238;-80
2023/10/22 05:55:36;;;;;;;4.95;0.82;;;;;;;14.59;57.13;96329.28;4924940;28;20615;-80
2023/10/22 05:58:02;;;;;;;1.67;0.65;;;;;;;14.65;56.85;96328.16;4911571;28;20263;-80
2023/10/22 06:00:27;;;;;;;4.13;0.88;;;;;;;14.68;56.96;96329.38;4929383;28;20199;-81
2023/10/22 06:02:53;;;;;;;3.88;0.77;;;;;;;14.65;56.67;96341.25;4914954;28;20102;-80
2023/10/22 06:05:18;;;;;;;2.58;0.60;;;;;;;14.71;57.01;96345.31;4921354;28;20780;-80
2023/10/22 06:07:45;;;;;;;2.83;0.40;;;;;;;14.54;57.55;96353.69;4929447;28;20225;-81
2023/10/22 06:10:11;;;;;;;4.50;0.52;;;;;;;14.67;57.11;96349.59;4913795;28;20288;-80
2023/10/22 06:12:36;;;;;;;4.15;1.00;;;;;;;14.47;57.43;96349.91;4894235;28;20371;-80
2023/10/22 06:15:03;;;;;;;7.78;0.80;;;;;;;14.70;57.01;96363.94;4893103;28;20102;-80
2023/10/22 06:17:32;;;;;;;4.68;0.75;;;;;;;14.51;57.54;96340.41;4896271;28;20251;-80
2023/10/22 06:19:57;;;;;;;6.47;0.55;;;;;;;14.60;57.41;96360.44;4908966;28;20176;-79
2023/10/22 06:22:23;;;;;;;3.80;0.63;;;;;;;14.57;57.45;96370.69;4890481;28;20486;-79
2023/10/22 06:24:48;;;;;;;5.88;1.27;;;;;;;14.30;57.58;96377.44;4921127;28;20195;-79
2023/10/22 06:27:13;;;;;;;3.47;0.75;;;;;;;14.56;57.48;96374.38;4929792;28;20653;-80
2023/10/22 06:29:39;;;;;;;3.78;0.50;;;;;;;14.48;58.46;96375.03;4912656;28;20114;-80
2023/10/22 06:32:04;;;;;;;5.53;0.57;;;;;;;14.55;57.87;96378.06;4896671;28;20903;-80
2023/10/22 06:34:30;;;;;;;2.38;0.75;;;;;;;14.70;56.70;96383.06;4907993;28;20195;-80
2023/10/22 06:36:55;;;;;;;4.18;0.63;;;;;;;14.88;56.39;96391.13;4909291;28;20192;-80
2023/10/22 06:39:21;;;;;;;7.05;1.73;;;;;;;14.96;56.61;96399.09;4929237;28;20272;-80
2023/10/22 06:41:46;;;;;;;3.35;0.88;;;;;;;15.00;56.69;96403.75;4913858;28;20585;-81
2023/10/22 06:44:12;;;;;;;3.85;0.60;;;;;;;15.05;56.42;96412.28;4928300;28;20289;-80
2023/10/22 06:46:37;;;;;;;4.20;0.60;;;;;;;15.09;56.69;96418.50;4883936;28;20709;-80
2023/10/22 06:49:03;;;;;;;3.03;0.70;;;;;;;15.22;56.50;96416.94;4888655;28;20201;-80
2023/10/22 06:51:29;;;;;;;1.65;0.60;;;;;;;14.96;57.05;96409.56;4909487;28;20166;-80
2023/10/22 06:53:54;;;;;;;3.85;0.70;;;;;;;15.16;56.71;96426.78;4924793;28;20168;-80
2023/10/22 06:56:20;;;;;;;3.92;1.23;;;;;;;15.31;56.27;96424.91;4930125;28;20218;-81
2023/10/22 06:58:46;;;;;;;3.85;0.73;;;;;;;15.16;55.70;96421.53;4911898;28;20279;-80
2023/10/22 07:01:13;;;;;;;5.15;1.35;;;;;;;15.27;56.46;96421.31;4910629;28;20223;-80
2023/10/22 07:03:45;;;;;;;4.03;1.27;;;;;;;15.25;56.53;96431.31;4897761;28;20177;-80
2023/10/22 07:06:11;;;;;;;4.35;1.00;;;;;;;15.31;55.65;96430.94;4884755;28;20165;-80
2023/10/22 07:08:36;;;;;;;4.60;1.27;;;;;;;15.36;55.98;96432.69;4930171;28;20285;-81
2023/10/22 07:11:05;;;;;;;4.05;0.63;;;;;;;15.47;56.24;96433.25;4928463;28;20338;-80
2023/10/22 07:13:30;;;;;;;5.68;0.63;;;;;;;15.55;55.14;96441.19;4916293;28;20248;-81
2023/10/22 07:15:56;;;;;;;4.45;1.30;;;;;;;15.45;55.82;96436.16;4914095;28;20295;-83
2023/10/22 07:18:21;;;;;;;3.25;0.88;;;;;;;15.67;54.73;96443.31;4887279;28;20190;-81
2023/10/22 07:20:48;;;;;;;5.95;0.90;;;;;;;15.57;55.40;96437.50;4912912;28;20212;-81
2023/10/22 07:23:13;;;;;;;2.25;0.80;;;;;;;15.36;57.07;96435.28;4897497;28;20255;-81
2023/10/22 07:25:39;;;;;;;3.78;0.70;;;;;;;15.33;56.41;96449.00;4901337;28;20275;-80
2023/10/22 07:28:07;;;;;;;3.60;1.00;;;;;;;15.57;55.94;96448.00;4908992;28;20695;-81
2023/10/22 07:30:33;;;;;;;4.63;0.90;;;;;;;15.31;55.95;96444.03;4885535;28;20178;-81
2023/10/22 07:32:59;;;;;;;4.28;1.08;;;;;;;15.31;56.84;96445.88;4892342;28;20199;-81
2023/10/22 07:35:24;;;;;;;6.35;0.90;;;;;;;15.44;56.18;96444.31;4904150;28;20650;-80
2023/10/22 07:37:50;;;;;;;3.88;0.98;;;;;;;15.45;55.72;96440.63;4897345;28;20334;-80
2023/10/22 07:40:17;;;;;;;5.32;1.10;;;;;;;15.34;55.95;96446.06;4887028;28;20696;-81
2023/10/22 07:42:44;;;;;;;4.20;0.80;;;;;;;15.37;56.52;96444.72;4912808;28;20203;-80
2023/10/22 07:45:10;;;;;;;2.42;0.70;;;;;;;15.43;55.86;96459.28;4909488;28;20204;-81
2023/10/22 07:47:36;;;;;;;3.20;0.80;;;;;;;15.27;56.57;96458.81;4921363;28;20166;-79
2023/10/22 07:50:03;;;;;;;7.53;1.70;;;;;;;15.45;56.32;96457.13;4893178;28;20239;-80
2023/10/22 07:52:30;;;;;;;5.25;1.10;;;;;;;15.16;57.10;96458.25;4890544;28;20217;-79
2023/10/22 07:54:56;;;;;;;4.50;1.20;;;;;;;15.39;56.58;96463.56;4908533;28;20211;-80
2023/10/22 07:57:21;;;;;;;3.85;1.13;;;;;;;15.41;56.12;96455.41;4927539;28;20175;-81
2023/10/22 07:59:46;;;;;;;2.45;0.98;;;;;;;15.39;56.88;96463.56;4912089;28;20297;-81
2023/10/22 08:02:12;;;;;;;3.70;0.70;;;;;;;15.45;56.70;96472.88;4909615;28;20463;-81
2023/10/22 08:04:38;;;;;;;4.18;1.05;;;;;;;15.63;56.37;96483.56;4911286;28;20172;-80
2023/10/22 08:07:04;;;;;;;3.88;0.88;;;;;;;15.63;56.24;96479.09;4909795;28;20207;-81
2023/10/22 08:09:29;;;;;;;5.10;1.25;;;;;;;15.77;55.99;96486.22;4897987;28;20231;-81
2023/10/22 08:11:55;;;;;;;3.90;2.15;;;;;;;15.52;56.77;96482.97;4895405;28;20208;-80
2023/10/22 08:14:20;;;;;;;3.30;1.02;;;;;;;15.49;56.09;96473.88;4911219;28;20203;-80
2023/10/22 08:16:46;;;;;;;7.80;2.05;;;;;;;15.49;56.05;96484.34;4927133;28;20255;-81
2023/10/22 08:19:11;;;;;;;6.53;1.08;;;;;;;15.68;57.10;96486.09;4894573;28;20368;-81
2023/10/22 08:21:37;;;;;;;5.57;1.40;;;;;;;15.81;56.19;96464.31;4912468;28;20274;-82
2023/10/22 08:24:02;;;;;;;4.05;2.20;;;;;;;15.87;55.66;96471.00;4878353;28;20692;-81
2023/10/22 08:26:28;;;;;;;5.90;2.72;;;;;;;15.73;56.70;96478.13;4900520;28;20208;-80
2023/10/22 08:28:53;;;;;;;7.72;3.08;;;;;;;16.09;55.73;96474.72;4894592;28;20182;-81
2023/10/22 08:31:19;;;;;;;3.15;1.08;;;;;;;16.12;55.70;96487.28;4928897;28;20219;-81
2023/10/22 08:33:44;;;;;;;4.10;0.60;;;;;;;16.26;55.51;96488.03;4926861;28;20096;-81
2023/10/22 08:36:10;;;;;;;3.33;0.82;;;;;;;16.35;54.79;96495.16;4916637;28;20287;-81
2023/10/22 08:38:36;;;;;;;5.97;1.25;;;;;;;16.43;54.36;96500.50;4897966;28;20207;-80
2023/10/22 08:41:03;;;;;;;4.75;1.00;;;;;;;16.57;54.13;96500.44;4910846;28;20661;-81
2023/10/22 08:43:32;;;;;;;2.85;0.75;;;;;;;16.70;54.51;96505.94;4892011;28;20180;-81
2023/10/22 08:45:58;;;;;;;5.43;1.15;;;;;;;16.54;54.46;96492.38;4900372;28;20620;-80
2023/10/22 08:48:27;;;;;;;6.22;1.13;;;;;;;16.63;53.98;96488.72;4898161;28;20584;-81
2023/10/22 08:50:54;;;;;;;4.13;1.45;;;;;;;16.93;54.26;96504.88;4883405;28;20297;-82
2023/10/22 08:53:19;;;;;;;3.22;1.15;;;;;;;16.94;53.67;96503.00;4908667;28;20330;-81
2023/10/22 08:55:47;;;;;;;5.25;1.33;;;;;;;17.18;54.02;96507.91;4910576;28;20106;-80
2023/10/22 08:58:18;;;;;;;5.72;1.95;;;;;;;17.29;52.91;96518.94;4886718;28;20165;-80
2023/10/22 09:00:45;;;;;;;7.20;3.13;;;;;;;17.42;53.08;96513.56;4925528;28;20555;-80
2023/10/22 09:03:12;;;;;;;7.07;1.02;;;;;;;17.29;52.43;96517.09;4905891;28;20296;-80
2023/10/22 09:05:39;;;;;;;3.00;0.82;;;;;;;17.34;53.02;96519.59;4898069;28;20203;-81
2023/10/22 09:08:04;;;;;;;3.70;0.73;;;;;;;17.34;53.79;96516.97;4880692;28;20220;-80
2023/10/22 09:10:31;;;;;;;4.88;0.90;;;;;;;17.36;53.33;96520.06;4927182;28;20683;-81
2023/10/22 09:13:20;;;;;;;8.68;1.55;;;;;;;17.30;52.30;96520.50;4910313;28;20595;-79
2023/10/22 09:15:50;;;;;;;4.32;1.25;;;;;;;17.47;52.35;96517.91;4910805;28;20211;-80
2023/10/22 09:18:17;;;;;;;7.35;1.15;;;;;;;17.25;52.49;96510.09;4899191;28;20267;-80
2023/10/22 09:20:44;;;;;;;3.17;1.38;;;;;;;17.59;52.34;96527.88;4890503;28;20265;-80
2023/10/22 09:23:14;;;;;;;5.38;0.82;;;;;;;17.69;50.71;96530.22;4923239;28;20199;-80
2023/10/22 09:25:49;;;;;;;7.53;1.00;;;;;;;17.59;52.70;96522.59;4912713;28;20263;-80
2023/10/22 09:28:17;;;;;;;7.50;1.40;;;;;;;17.60;51.73;96524.94;4890496;28;20557;-81
2023/10/22 09:30:43;;;;;;;4.60;1.33;;;;;;;17.71;51.36;96533.31;4894290;28;20287;-82
2023/10/22 09:33:09;;;;;;;4.18;1.25;;;;;;;17.82;50.89;96535.66;4883010;28;20629;-81
2023/10/22 09:35:36;;;;;;;8.30;2.85;;;;;;;17.59;52.93;96539.16;4905536;28;20197;-83
2023/10/22 09:38:01;;;;;;;5.03;1.60;;;;;;;17.76;52.29;96546.34;4904852;28;20192;-81
2023/10/22 09:40:30;;;;;;;4.18;1.30;;;;;;;17.56;51.89;96549.53;4908725;28;20790;-80
2023/10/22 09:42:56;;;;;;;6.10;1.35;;;;;;;17.63;52.00;96554.38;4891148;28;20612;-80
2023/10/22 09:45:23;;;;;;;7.40;1.30;;;;;;;17.35;52.55;96550.06;4909343;28;20251;-80
2023/10/22 09:47:50;;;;;;;7.30;1.63;;;;;;;17.59;51.73;96541.03;4907312;28;20207;-81
2023/10/22 09:50:18;;;;;;;3.95;1.27;;;;;;;17.91;52.17;96549.69;4891976;28;20187;-81
2023/10/22 09:52:44;;;;;;;6.97;1.30;;;;;;;18.19;50.81;96549.41;4891417;28;20204;-81
2023/10/22 09:55:13;;;;;;;5.93;1.33;;;;;;;18.48;49.24;96556.69;4905141;28;20033;-80
2023/10/22 09:57:40;;;;;;;7.20;1.55;;;;;;;18.38;49.13;96555.16;4909902;28;20223;-80
2023/10/22 10:00:12;;;;;;;5.85;1.15;;;;;;;18.47;50.75;96550.66;4925123;28;20641;-82
2023/10/22 10:02:38;;;;;;;7.53;1.30;;;;;;;17.99;50.43;96554.16;4910841;28;20162;-81
2023/10/22 10:05:12;;;;;;;6.05;1.40;;;;;;;18.19;50.03;96549.41;4904851;28;20611;-80
2023/10/22 10:07:40;;;;;;;4.95;1.65;;;;;;;18.32;50.13;96554.53;4906451;28;20475;-82
2023/10/22 10:10:07;;;;;;;5.32;1.50;;;;;;;18.27;50.04;96561.81;4905767;28;20271;-81
2023/10/22 10:12:36;;;;;;;8.75;1.50;;;;;;;18.09;50.89;96558.38;4913551;28;20212;-81
2023/10/22 10:15:02;;;;;;;5.57;1.58;;;;;;;18.15;48.58;96559.78;4893941;28;20204;-83
2023/10/22 10:17:29;;;;;;;4.15;0.90;;;;;;;18.17;49.12;96570.03;4897670;28;20203;-82
2023/10/22 10:20:23;;;;;;;6.63;1.48;;;;;;;18.41;47.88;96574.84;4910751;28;20494;-81
2023/10/22 10:23:05;;;;;;;4.72;1.17;;;;;;;18.45;49.77;96567.88;4900663;28;20200;-81
2023/10/22 10:25:32;;;;;;;4.90;1.38;;;;;;;18.31;48.12;96568.78;4917899;28;20204;-82
2023/10/22 10:28:05;;;;;;;7.95;1.23;;;;;;;18.44;48.70;96576.84;4896379;28;20353;-81
2023/10/22 10:30:31;;;;;;;6.57;1.38;;;;;;;18.20;48.20;96577.28;4909746;28;20194;-82
2023/10/22 10:32:57;;;;;;;7.20;1.38;;;;;;;18.25;49.38;96577.94;4909757;28;20285;-81
2023/10/22 10:35:23;;;;;;;5.32;0.90;;;;;;;18.28;47.86;96574.69;4894654;28;20600;-81
2023/10/22 10:38:14;;;;;;;7.05;1.20;;;;;;;18.25;48.67;96582.41;4889901;28;20691;-81
2023/10/22 10:40:44;;;;;;;3.47;0.85;;;;;;;18.20;48.71;96572.03;4920319;28;20263;-82
2023/10/22 10:43:10;;;;;;;6.85;1.48;;;;;;;18.18;48.43;96576.81;4891281;28;20195;-80
2023/10/22 10:45:38;;;;;;;4.75;0.80;;;;;;;18.21;48.76;96579.63;4879860;28;20256;-81
2023/10/22 10:48:03;;;;;;;9.90;2.38;;;;;;;18.29;48.84;96578.84;4912398;28;20265;-83
2023/10/22 10:50:29;;;;;;;2.75;0.88;;;;;;;18.44;47.58;96572.38;4884749;28;20212;-81
2023/10/22 10:53:02;;;;;;;5.25;1.25;;;;;;;18.44;48.41;96577.63;4909210;28;20709;-82
2023/10/22 10:55:34;;;;;;;4.47;1.40;;;;;;;18.21;49.19;96579.63;4893819;28;20252;-81
2023/10/22 10:58:01;;;;;;;6.70;1.45;;;;;;;18.22;48.50;96565.38;4909972;28;20271;-80
2023/10/22 11:00:29;;;;;;;5.45;1.35;;;;;;;18.39;47.08;96569.88;4930940;28;20413;-82
2023/10/22 11:02:56;;;;;;;6.28;2.22;;;;;;;18.49;49.13;96574.84;4904555;28;20191;-82
2023/10/22 11:05:39;;;;;;;4.95;1.20;;;;;;;18.77;47.63;96571.88;4893993;28;20295;-81
2023/10/22 11:08:24;;;;;;;5.63;1.10;;;;;;;19.07;47.33;96577.28;4886837;28;20290;-81
2023/10/22 11:10:50;;;;;;;6.20;1.13;;;;;;;19.49;46.16;96582.78;4911202;28;20298;-81
2023/10/22 11:13:25;;;;;;;3.92;1.17;;;;;;;20.05;44.78;96579.25;4914326;28;20288;-82
2023/10/22 11:15:53;;;;;;;4.95;1.15;;;;;;;20.61;44.50;96586.97;4905638;28;20620;-82
2023/10/22 11:18:19;;;;;;;5.97;1.25;;;;;;;21.15;43.70;96584.31;4926941;28;20566;-81
2023/10/22 11:20:56;;;;;;;4.32;1.10;;;;;;;21.96;42.55;96589.16;4912625;28;20222;-83
2023/10/22 11:23:21;;;;;;;3.67;1.00;;;;;;;22.61;40.26;96581.22;4891983;28;20215;-81
2023/10/22 11:25:48;;;;;;;4.65;1.23;;;;;;;22.94;39.80;96580.19;4907341;28;20170;-82
2023/10/22 11:28:14;;;;;;;4.68;1.40;;;;;;;23.03;39.16;96585.34;4926460;28;20270;-80
2023/10/22 11:30:41;;;;;;;2.55;1.02;;;;;;;23.42;38.51;96581.03;4893489;28;20169;-82
2023/10/22 11:33:13;;;;;;;4.22;1.10;;;;;;;23.30;38.69;96592.53;4901726;28;20699;-81